Time;durP1;ratioP1;P1;durP2;ratioP2;P2;SDS_P1;SDS_P2;PMS_P1;PMS_P2;Temp;Humidity;BMP_temperature;BMP_pressure;BME280_temperature;BME280_humidity;BME280_pressure;Samples;Min_cycle;Max_cycle;Signal;HPM_P1;HPM_P2
2020/12/24 00:01:14;;;;;;;54.25;41.72;;;7.60;97.10;;;;;;5110911;28;20172;-78
2020/12/24 00:03:43;;;;;;;50.70;40.93;;;7.60;97.10;;;;;;5109863;28;20178;-78
2020/12/24 00:06:11;;;;;;;51.53;39.92;;;7.70;96.90;;;;;;5108782;28;20198;-78
2020/12/24 00:08:40;;;;;;;55.20;43.85;;;7.60;96.90;;;;;;5109799;28;20249;-78
2020/12/24 00:11:08;;;;;;;53.80;43.42;;;7.50;97.20;;;;;;5110152;28;20179;-78
2020/12/24 00:13:34;;;;;;;60.78;50.65;;;7.40;97.60;;;;;;5109071;28;20168;-78
2020/12/24 00:16:00;;;;;;;50.95;40.50;;;7.40;97.60;;;;;;5109797;28;20203;-78
2020/12/24 00:18:32;;;;;;;56.90;44.97;;;7.50;97.30;;;;;;5109506;28;20241;-78
2020/12/24 00:21:09;;;;;;;57.40;47.55;;;7.60;97.10;;;;;;5110063;28;20259;-78
2020/12/24 00:23:35;;;;;;;58.92;46.25;;;7.60;97.10;;;;;;5108439;28;20183;-78
2020/12/24 00:26:03;;;;;;;54.73;41.60;;;7.60;97.00;;;;;;5108734;28;20539;-78
2020/12/24 00:28:32;;;;;;;52.90;40.20;;;7.60;97.00;;;;;;5109728;28;20412;-78
2020/12/24 00:30:58;;;;;;;49.33;41.58;;;7.50;97.20;;;;;;5108535;28;20587;-78
2020/12/24 00:33:36;;;;;;;56.50;42.35;;;7.60;97.10;;;;;;5108805;28;20195;-78
2020/12/24 00:36:02;;;;;;;59.95;46.35;;;7.50;97.10;;;;;;5109646;28;20648;-78
2020/12/24 00:38:28;;;;;;;57.00;45.57;;;7.50;97.20;;;;;;5109013;28;20179;-78
2020/12/24 00:40:54;;;;;;;51.08;41.35;;;7.30;97.80;;;;;;5108607;28;20431;-78
2020/12/24 00:43:25;;;;;;;50.95;42.42;;;7.30;98.00;;;;;;5107176;28;20655;-78
2020/12/24 00:45:54;;;;;;;54.45;44.33;;;7.20;98.30;;;;;;5107675;28;20514;-78
2020/12/24 00:48:20;;;;;;;54.55;41.35;;;7.20;98.50;;;;;;5109534;28;20686;-78
2020/12/24 00:50:48;;;;;;;47.07;37.97;;;7.20;98.50;;;;;;5108793;28;20184;-78
2020/12/24 00:53:17;;;;;;;52.95;37.40;;;7.20;98.70;;;;;;5108986;28;20494;-78
2020/12/24 00:55:48;;;;;;;48.25;39.55;;;7.30;98.70;;;;;;5107272;28;20215;-78
2020/12/24 00:58:14;;;;;;;48.10;38.85;;;7.40;98.50;;;;;;5109441;28;20600;-78
2020/12/24 01:00:39;;;;;;;51.10;38.17;;;7.40;98.60;;;;;;5108641;28;20236;-78
2020/12/24 01:03:08;;;;;;;50.83;43.90;;;7.50;98.40;;;;;;5106706;28;20191;-78
2020/12/24 01:05:34;;;;;;;60.65;45.35;;;7.50;98.20;;;;;;5109036;28;20228;-78
2020/12/24 01:08:00;;;;;;;53.88;44.40;;;7.60;98.10;;;;;;5108636;28;20172;-78
2020/12/24 01:10:29;;;;;;;48.88;38.35;;;7.70;98.00;;;;;;5107273;28;20190;-77
2020/12/24 01:12:58;;;;;;;44.25;37.28;;;7.70;97.80;;;;;;5108725;28;20704;-77
2020/12/24 01:15:26;;;;;;;50.58;39.95;;;7.80;97.80;;;;;;5108971;28;20647;-77
2020/12/24 01:17:55;;;;;;;49.22;40.85;;;7.80;97.50;;;;;;5107780;28;20179;-78
2020/12/24 01:20:20;;;;;;;48.03;38.33;;;7.80;97.30;;;;;;5108611;28;20220;-78
2020/12/24 01:22:49;;;;;;;47.00;36.03;;;7.80;97.60;;;;;;5108523;28;20253;-78
2020/12/24 01:25:23;;;;;;;46.40;40.15;;;7.80;97.40;;;;;;5108713;28;20616;-78
2020/12/24 01:27:52;;;;;;;52.53;36.97;;;7.90;97.40;;;;;;5108150;28;20649;-78
2020/12/24 01:30:26;;;;;;;47.50;38.08;;;7.90;97.10;;;;;;5108921;28;20267;-78
2020/12/24 01:32:52;;;;;;;47.70;38.35;;;8.00;97.00;;;;;;5107771;28;20219;-78
2020/12/24 01:35:21;;;;;;;46.95;39.22;;;8.00;97.00;;;;;;5107628;28;20175;-78
2020/12/24 01:37:47;;;;;;;46.75;39.38;;;8.00;97.00;;;;;;5107532;28;20172;-78
2020/12/24 01:40:16;;;;;;;48.50;39.42;;;7.90;97.20;;;;;;5108802;28;20229;-78
2020/12/24 01:42:42;;;;;;;47.20;37.97;;;7.90;96.80;;;;;;5109043;28;20246;-78
2020/12/24 01:45:10;;;;;;;46.50;38.50;;;8.00;96.80;;;;;;5108222;28;20720;-78
2020/12/24 01:47:42;;;;;;;46.63;37.42;;;7.90;96.80;;;;;;5108540;28;20533;-78
2020/12/24 01:50:20;;;;;;;43.20;36.95;;;7.80;97.10;;;;;;5107604;28;20283;-78
2020/12/24 01:52:49;;;;;;;46.80;38.88;;;7.80;97.20;;;;;;5107406;28;20299;-78
2020/12/24 01:55:18;;;;;;;51.05;39.25;;;7.90;96.90;;;;;;5106577;28;20187;-78
2020/12/24 01:57:47;;;;;;;51.22;40.55;;;7.80;97.10;;;;;;5106782;28;20287;-78
2020/12/24 02:00:15;;;;;;;47.40;38.97;;;7.70;97.40;;;;;;5108055;28;20180;-78
2020/12/24 02:02:47;;;;;;;49.50;38.08;;;7.70;97.30;;;;;;5108544;28;20532;-78
2020/12/24 02:05:15;;;;;;;56.28;40.13;;;7.70;97.50;;;;;;5107926;28;20266;-78
2020/12/24 02:07:44;;;;;;;48.20;38.70;;;7.60;97.60;;;;;;5105023;28;20655;-78
2020/12/24 02:10:12;;;;;;;52.13;40.05;;;7.60;97.60;;;;;;5106406;28;20187;-78
2020/12/24 02:15:53;;;;;;;50.00;41.17;;;7.70;97.40;;;;;;5105559;28;20242;-78
2020/12/24 02:18:22;;;;;;;46.30;38.50;;;7.70;97.50;;;;;;5104680;28;20651;-78
2020/12/24 02:20:48;;;;;;;47.17;39.05;;;7.60;97.50;;;;;;5107273;28;20221;-77
2020/12/24 02:23:17;;;;;;;50.72;38.78;;;7.60;97.30;;;;;;5107183;28;20179;-78
2020/12/24 02:25:43;;;;;;;52.50;40.58;;;7.70;97.10;;;;;;5107876;28;20180;-78
2020/12/24 02:28:11;;;;;;;50.03;40.40;;;7.70;97.00;;;;;;5108261;28;20643;-78
2020/12/24 02:30:43;;;;;;;53.15;40.70;;;7.80;96.90;;;;;;5106462;28;20199;-78
2020/12/24 02:33:11;;;;;;;51.97;42.70;;;7.80;96.80;;;;;;5107024;28;20618;-78
2020/12/24 02:35:39;;;;;;;54.58;41.17;;;7.80;96.60;;;;;;5108321;28;20731;-78
2020/12/24 02:38:08;;;;;;;51.72;42.72;;;7.70;96.80;;;;;;5108481;28;20215;-78
2020/12/24 02:40:40;;;;;;;49.92;41.42;;;7.80;96.60;;;;;;5108176;28;20188;-78
2020/12/24 02:43:05;;;;;;;51.13;40.75;;;7.80;96.40;;;;;;5108528;28;20269;-78
2020/12/24 02:45:37;;;;;;;54.00;43.47;;;7.80;96.30;;;;;;5106730;28;20192;-78
2020/12/24 02:48:05;;;;;;;52.33;40.28;;;7.70;96.30;;;;;;5108407;28;20172;-78
2020/12/24 02:50:31;;;;;;;56.63;43.33;;;7.70;96.40;;;;;;5108643;28;20645;-78
2020/12/24 02:53:02;;;;;;;53.63;40.40;;;7.70;96.40;;;;;;5107955;28;20227;-78
2020/12/24 02:55:28;;;;;;;51.33;39.13;;;7.70;96.30;;;;;;5106960;28;20200;-78
2020/12/24 02:58:15;;;;;;;48.70;38.40;;;7.60;96.60;;;;;;5107180;28;20168;-78
2020/12/24 03:00:46;;;;;;;52.80;44.30;;;7.60;96.80;;;;;;5106244;28;20180;-78
2020/12/24 03:03:12;;;;;;;50.08;41.00;;;7.60;96.80;;;;;;5108539;28;20172;-78
2020/12/24 03:05:37;;;;;;;55.73;44.23;;;7.50;96.90;;;;;;5110208;28;20547;-78
2020/12/24 03:08:03;;;;;;;50.30;39.73;;;7.50;96.80;;;;;;5111637;28;20208;-78
2020/12/24 03:10:31;;;;;;;50.90;41.33;;;7.50;96.70;;;;;;5111463;28;20187;-78
2020/12/24 03:13:03;;;;;;;49.38;39.90;;;7.60;96.70;;;;;;5109959;28;20175;-78
2020/12/24 03:15:37;;;;;;;46.60;40.03;;;7.50;96.70;;;;;;5111725;28;20186;-78
2020/12/24 03:18:06;;;;;;;53.80;40.60;;;7.50;96.80;;;;;;5110223;28;20233;-78
2020/12/24 03:20:59;;;;;;;47.70;38.78;;;7.60;96.50;;;;;;5111391;28;20180;-78
2020/12/24 03:23:37;;;;;;;46.60;37.55;;;7.60;96.40;;;;;;5111165;28;20176;-78
2020/12/24 03:26:08;;;;;;;48.10;38.08;;;7.70;96.30;;;;;;5111721;28;20179;-78
2020/12/24 03:28:49;;;;;;;43.55;35.42;;;7.80;96.20;;;;;;5110203;28;20609;-78
2020/12/24 03:31:26;;;;;;;45.22;35.10;;;7.80;96.00;;;;;;5110298;28;20187;-78
2020/12/24 03:34:02;;;;;;;46.78;36.10;;;7.80;96.00;;;;;;5110160;28;20608;-78
2020/12/24 03:36:28;;;;;;;40.88;32.72;;;7.80;96.00;;;;;;5110279;28;20207;-78
2020/12/24 03:38:56;;;;;;;43.43;34.30;;;7.80;95.80;;;;;;5110260;28;20675;-77
2020/12/24 03:41:25;;;;;;;38.58;31.40;;;7.80;95.80;;;;;;5110994;28;20172;-78
2020/12/24 03:43:56;;;;;;;42.22;34.15;;;7.80;95.90;;;;;;5110355;28;20176;-78
2020/12/24 03:46:21;;;;;;;44.67;35.92;;;7.90;95.50;;;;;;5110459;28;20208;-78
2020/12/24 03:48:50;;;;;;;46.27;33.73;;;7.90;95.20;;;;;;5109147;28;20203;-78
2020/12/24 03:51:24;;;;;;;47.53;33.60;;;7.90;95.20;;;;;;5109243;28;20644;-78
2020/12/24 03:53:53;;;;;;;46.88;34.58;;;7.90;95.00;;;;;;5109972;28;20167;-78
2020/12/24 03:56:18;;;;;;;42.28;35.35;;;7.90;95.10;;;;;;5109715;28;20212;-78
2020/12/24 03:58:50;;;;;;;51.40;37.63;;;7.90;95.10;;;;;;5109041;28;20276;-78
2020/12/24 04:01:18;;;;;;;48.78;37.70;;;7.80;95.00;;;;;;5108477;28;20176;-78
2020/12/24 04:03:47;;;;;;;49.10;38.17;;;7.70;95.30;;;;;;5110043;28;20580;-78
2020/12/24 04:06:18;;;;;;;49.95;38.92;;;7.80;95.00;;;;;;5110250;28;20176;-79
2020/12/24 04:08:47;;;;;;;50.40;38.88;;;7.80;95.10;;;;;;5110229;28;20217;-78
2020/12/24 04:11:12;;;;;;;59.05;42.63;;;7.80;95.00;;;;;;5110447;28;20186;-78
2020/12/24 04:13:38;;;;;;;54.57;39.60;;;7.80;95.00;;;;;;5109340;28;20183;-78
2020/12/24 04:16:03;;;;;;;53.90;39.23;;;7.80;94.90;;;;;;5110114;28;20256;-78
2020/12/24 04:18:38;;;;;;;53.23;40.60;;;7.70;95.10;;;;;;5109518;28;20695;-78
2020/12/24 04:21:12;;;;;;;47.28;34.42;;;7.70;95.00;;;;;;5110352;28;20628;-78
2020/12/24 04:23:41;;;;;;;55.70;43.45;;;7.70;94.80;;;;;;5108044;28;20175;-78
2020/12/24 04:26:09;;;;;;;46.40;34.67;;;7.70;94.90;;;;;;5109446;28;20195;-78
2020/12/24 04:28:38;;;;;;;46.42;37.78;;;7.60;95.20;;;;;;5109367;28;20172;-77
2020/12/24 04:31:06;;;;;;;53.17;41.70;;;7.50;95.50;;;;;;5109713;28;20172;-78
2020/12/24 04:33:32;;;;;;;49.70;41.17;;;7.50;95.80;;;;;;5107014;28;20187;-78
2020/12/24 04:35:57;;;;;;;54.73;40.90;;;7.40;95.90;;;;;;5109470;28;20211;-77
2020/12/24 04:38:23;;;;;;;52.10;42.17;;;7.50;95.80;;;;;;5109591;28;20258;-78
2020/12/24 04:40:53;;;;;;;49.97;39.80;;;7.50;95.80;;;;;;5107930;28;20276;-78
2020/12/24 04:43:19;;;;;;;49.58;40.10;;;7.50;95.70;;;;;;5109435;28;20194;-78
2020/12/24 04:45:53;;;;;;;49.85;40.80;;;7.60;95.60;;;;;;5109367;28;20786;-78
2020/12/24 04:48:19;;;;;;;49.63;39.35;;;7.70;95.20;;;;;;5107784;28;20631;-78
2020/12/24 04:50:53;;;;;;;42.50;35.70;;;7.70;95.20;;;;;;5106309;28;20188;-78
2020/12/24 04:53:19;;;;;;;45.33;35.50;;;7.70;95.30;;;;;;5108042;28;20226;-78
2020/12/24 04:55:45;;;;;;;51.08;42.13;;;7.70;95.70;;;;;;5109283;28;20287;-78
2020/12/24 04:58:11;;;;;;;46.95;39.38;;;7.70;95.30;;;;;;5108714;28;20164;-78
2020/12/24 05:00:39;;;;;;;45.73;38.93;;;7.80;95.20;;;;;;5108824;28;20179;-78
2020/12/24 05:03:09;;;;;;;45.55;36.20;;;7.80;95.10;;;;;;5107569;28;20420;-78
2020/12/24 05:05:36;;;;;;;46.97;35.90;;;7.80;95.30;;;;;;5106795;28;20192;-78
2020/12/24 05:08:07;;;;;;;48.38;38.50;;;7.80;95.30;;;;;;5108438;28;20172;-78
2020/12/24 05:10:37;;;;;;;48.60;37.95;;;7.80;95.30;;;;;;5108310;28;20176;-78
2020/12/24 05:13:19;;;;;;;44.42;33.67;;;7.80;95.20;;;;;;5108518;27;20176;-78
2020/12/24 05:15:45;;;;;;;42.53;35.05;;;7.80;94.90;;;;;;5108696;27;20221;-78
2020/12/24 05:18:22;;;;;;;43.57;36.40;;;7.90;95.10;;;;;;5107362;28;20187;-78
2020/12/24 05:20:50;;;;;;;46.97;41.78;;;7.90;94.80;;;;;;5107311;28;20967;-78
2020/12/24 05:23:18;;;;;;;45.47;36.50;;;8.00;94.60;;;;;;5107146;28;20255;-78
2020/12/24 05:25:46;;;;;;;44.58;35.20;;;8.00;94.60;;;;;;5108419;28;20229;-78
2020/12/24 05:28:22;;;;;;;44.72;38.00;;;8.00;94.50;;;;;;5107813;28;20532;-78
2020/12/24 05:30:48;;;;;;;49.22;34.97;;;8.00;94.50;;;;;;5108240;28;20183;-78
2020/12/24 05:33:39;;;;;;;43.33;35.38;;;8.00;94.50;;;;;;5108661;28;20207;-78
2020/12/24 05:36:24;;;;;;;40.20;32.80;;;8.10;94.40;;;;;;5107989;28;20663;-78
2020/12/24 05:38:56;;;;;;;39.88;33.45;;;8.10;94.10;;;;;;5107247;28;20282;-78
2020/12/24 05:41:32;;;;;;;42.20;33.38;;;8.20;94.00;;;;;;5107248;28;20212;-78
2020/12/24 05:44:03;;;;;;;43.30;35.92;;;8.30;93.70;;;;;;5106853;28;20320;-78
2020/12/24 05:46:49;;;;;;;37.80;32.38;;;8.40;93.50;;;;;;5107878;28;20191;-78
2020/12/24 05:49:27;;;;;;;40.22;32.58;;;8.50;93.00;;;;;;5107868;28;20190;-78
2020/12/24 05:51:55;;;;;;;36.92;32.80;;;8.50;92.90;;;;;;5107597;28;20334;-78
2020/12/24 05:54:25;;;;;;;37.83;31.58;;;8.60;92.60;;;;;;5106800;28;20256;-78
2020/12/24 05:56:58;;;;;;;34.45;29.00;;;8.70;92.10;;;;;;5108223;28;20388;-78
2020/12/24 05:59:26;;;;;;;34.75;28.92;;;8.70;92.00;;;;;;5107839;28;20171;-78
2020/12/24 06:02:13;;;;;;;34.58;29.20;;;8.70;91.80;;;;;;5107935;28;20180;-77
2020/12/24 06:04:54;;;;;;;31.17;27.00;;;8.70;91.40;;;;;;5107935;28;20186;-78
2020/12/24 06:07:30;;;;;;;29.30;24.23;;;8.80;91.20;;;;;;5108364;28;20167;-78
2020/12/24 06:10:11;;;;;;;31.17;27.83;;;8.90;90.70;;;;;;5107948;28;20201;-78
2020/12/24 06:12:52;;;;;;;30.10;24.02;;;8.80;90.60;;;;;;5105481;28;20338;-78
2020/12/24 06:15:24;;;;;;;27.58;24.10;;;8.80;90.80;;;;;;5106864;28;20175;-77
2020/12/24 06:17:50;;;;;;;28.00;22.05;;;8.80;90.60;;;;;;5108248;28;20714;-77
2020/12/24 06:20:19;;;;;;;26.63;22.93;;;8.90;90.30;;;;;;5107694;28;20282;-77
2020/12/24 06:22:48;;;;;;;28.60;22.25;;;8.90;90.30;;;;;;5108626;28;20591;-78
2020/12/24 06:25:14;;;;;;;25.25;21.10;;;8.80;90.40;;;;;;5106073;28;20180;-77
2020/12/24 06:27:51;;;;;;;24.17;20.60;;;8.90;90.10;;;;;;5106718;28;20321;-77
2020/12/24 06:30:21;;;;;;;25.58;22.88;;;8.90;89.70;;;;;;5106513;28;20423;-77
2020/12/24 06:32:48;;;;;;;23.10;19.63;;;8.90;89.90;;;;;;5107404;28;20259;-77
2020/12/24 06:35:36;;;;;;;22.77;20.45;;;9.00;89.90;;;;;;5107314;28;20180;-77
2020/12/24 06:38:03;;;;;;;22.38;19.50;;;9.00;89.60;;;;;;5106016;28;20283;-78
2020/12/24 06:40:40;;;;;;;23.20;20.73;;;9.00;89.20;;;;;;5108508;28;20180;-77
2020/12/24 06:43:09;;;;;;;25.13;22.55;;;9.00;89.50;;;;;;5111448;28;20605;-78
2020/12/24 06:45:41;;;;;;;25.02;22.02;;;8.90;89.60;;;;;;5109443;28;20172;-78
2020/12/24 06:48:23;;;;;;;24.67;20.90;;;8.90;89.50;;;;;;5110805;28;20655;-78
2020/12/24 06:51:04;;;;;;;25.23;21.30;;;8.90;89.50;;;;;;5111309;28;20172;-78
2020/12/24 06:53:34;;;;;;;28.50;20.63;;;9.00;89.60;;;;;;5109838;28;20180;-78
2020/12/24 06:56:22;;;;;;;22.65;19.83;;;9.00;89.90;;;;;;5111245;27;20471;-78
2020/12/24 06:59:05;;;;;;;22.02;18.38;;;9.00;89.00;;;;;;5111248;28;20171;-77
2020/12/24 07:01:35;;;;;;;22.48;18.38;;;9.00;90.10;;;;;;5108552;28;20186;-78
2020/12/24 07:04:11;;;;;;;54.72;38.22;;;9.00;89.30;;;;;;5109574;28;20211;-77
2020/12/24 07:06:40;;;;;;;27.15;23.15;;;9.00;89.20;;;;;;5111098;28;20228;-78
2020/12/24 07:09:06;;;;;;;27.23;24.50;;;9.10;89.00;;;;;;5110934;28;20978;-78
2020/12/24 07:11:47;;;;;;;25.52;20.98;;;9.10;88.30;;;;;;5111384;28;20180;-77
2020/12/24 07:14:34;;;;;;;23.85;21.25;;;9.20;88.60;;;;;;5110824;28;20202;-78
2020/12/24 07:17:19;;;;;;;25.85;21.17;;;9.30;88.10;;;;;;5110112;28;20539;-77
2020/12/24 07:19:50;;;;;;;22.88;19.13;;;9.30;88.00;;;;;;5111189;28;20268;-77
2020/12/24 07:22:17;;;;;;;23.88;20.65;;;9.30;87.80;;;;;;5111408;28;20164;-77
2020/12/24 07:24:58;;;;;;;24.50;22.15;;;9.40;87.00;;;;;;5110416;28;20168;-78
2020/12/24 07:27:27;;;;;;;21.88;19.58;;;9.40;86.80;;;;;;5110909;28;20176;-77
2020/12/24 07:29:52;;;;;;;20.95;18.60;;;9.50;86.50;;;;;;5110395;28;20538;-78
2020/12/24 07:32:27;;;;;;;22.10;19.90;;;9.50;86.60;;;;;;5109570;28;20179;-77
2020/12/24 07:34:52;;;;;;;20.27;18.05;;;9.50;85.90;;;;;;5110386;28;20175;-78
2020/12/24 07:37:22;;;;;;;26.20;22.60;;;9.50;86.40;;;;;;5110858;28;20354;-77
2020/12/24 07:39:59;;;;;;;23.75;20.40;;;9.60;86.00;;;;;;5110225;28;20168;-77
2020/12/24 07:42:26;;;;;;;21.27;17.20;;;9.70;85.50;;;;;;5110407;28;20279;-77
2020/12/24 07:44:52;;;;;;;22.52;20.13;;;9.70;85.30;;;;;;5108564;28;20627;-77
2020/12/24 07:47:21;;;;;;;20.87;17.33;;;9.80;85.50;;;;;;5109389;28;20278;-77
2020/12/24 07:49:53;;;;;;;21.23;18.33;;;9.80;86.30;;;;;;5108705;28;20416;-77
2020/12/24 07:52:19;;;;;;;19.13;16.10;;;9.80;85.50;;;;;;5089019;28;20266;-77
2020/12/24 07:54:44;;;;;;;23.05;19.23;;;9.70;85.90;;;;;;5089906;28;20212;-78
2020/12/24 07:57:23;;;;;;;22.07;17.93;;;9.80;85.40;;;;;;5089724;28;20696;-77
2020/12/24 07:59:58;;;;;;;23.45;17.20;;;9.90;85.10;;;;;;5089274;28;21007;-77
2020/12/24 08:02:23;;;;;;;18.95;16.50;;;9.90;85.40;;;;;;5088473;28;20636;-78
2020/12/24 08:04:56;;;;;;;19.67;17.40;;;9.90;85.60;;;;;;5088330;28;20185;-78
2020/12/24 08:07:21;;;;;;;18.17;16.30;;;10.00;85.10;;;;;;5088267;28;20773;-77
2020/12/24 08:09:47;;;;;;;19.93;17.53;;;10.00;84.70;;;;;;5089548;28;20283;-77
2020/12/24 08:12:23;;;;;;;21.40;19.10;;;10.10;84.00;;;;;;5089616;28;20177;-78
2020/12/24 08:14:48;;;;;;;20.60;16.80;;;10.20;84.00;;;;;;5089353;28;20417;-77
2020/12/24 08:17:26;;;;;;;17.90;15.83;;;10.30;83.50;;;;;;5089494;28;20211;-77
2020/12/24 08:20:09;;;;;;;15.93;14.18;;;10.30;84.30;;;;;;5087940;28;20191;-77
2020/12/24 08:22:46;;;;;;;16.45;14.20;;;10.40;83.60;;;;;;5086796;28;20749;-77
2020/12/24 08:25:15;;;;;;;16.40;14.73;;;10.50;82.80;;;;;;5089093;28;20187;-77
2020/12/24 08:27:45;;;;;;;17.48;15.68;;;10.40;83.10;;;;;;5087631;28;20192;-77
2020/12/24 08:30:14;;;;;;;18.25;15.63;;;10.40;83.00;;;;;;5089158;28;20279;-78
2020/12/24 08:32:40;;;;;;;16.45;14.70;;;10.50;83.30;;;;;;5089127;28;20176;-78
2020/12/24 08:35:13;;;;;;;17.55;14.95;;;10.50;83.40;;;;;;5088961;28;20604;-78
2020/12/24 08:37:39;;;;;;;15.13;12.80;;;10.40;84.00;;;;;;5088432;28;20231;-77
2020/12/24 08:40:25;;;;;;;15.70;13.60;;;10.40;83.80;;;;;;5088700;28;20181;-77
2020/12/24 08:43:28;;;;;;;17.05;15.23;;;10.50;84.00;;;;;;5088884;28;20960;-77
2020/12/24 08:45:57;;;;;;;17.80;15.00;;;10.50;83.90;;;;;;5090855;28;20396;-77
2020/12/24 08:48:33;;;;;;;17.33;15.48;;;10.60;83.40;;;;;;5109542;28;20647;-77
2020/12/24 08:50:59;;;;;;;16.38;13.82;;;10.70;83.10;;;;;;5108992;28;20191;-77
2020/12/24 08:53:29;;;;;;;15.98;13.95;;;10.80;82.80;;;;;;5109123;28;20190;-77
2020/12/24 08:56:09;;;;;;;14.27;12.88;;;10.70;83.00;;;;;;5108813;28;20195;-77
2020/12/24 08:58:35;;;;;;;18.60;13.77;;;10.80;82.90;;;;;;5109596;28;20167;-77
2020/12/24 09:01:13;;;;;;;16.42;14.73;;;11.00;82.50;;;;;;5109002;28;20284;-78
2020/12/24 09:03:43;;;;;;;15.80;13.80;;;11.00;81.90;;;;;;5108095;28;20148;-77
2020/12/24 09:06:12;;;;;;;16.05;14.00;;;11.00;81.70;;;;;;5107356;28;20270;-77
2020/12/24 09:08:52;;;;;;;14.35;12.85;;;11.10;81.40;;;;;;5109023;28;20631;-77
2020/12/24 09:11:25;;;;;;;15.13;12.90;;;11.20;81.30;;;;;;5108293;28;20183;-77
2020/12/24 09:14:07;;;;;;;16.83;12.10;;;11.20;80.90;;;;;;5109103;28;20221;-77
2020/12/24 09:16:35;;;;;;;14.55;12.23;;;11.20;81.50;;;;;;5108784;28;20556;-77
2020/12/24 09:19:11;;;;;;;13.43;11.98;;;11.20;81.10;;;;;;5107162;28;20640;-77
2020/12/24 09:22:00;;;;;;;14.23;12.82;;;11.20;80.80;;;;;;5109265;28;20206;-77
2020/12/24 09:24:32;;;;;;;14.60;12.38;;;11.20;81.60;;;;;;5107218;28;20168;-77
2020/12/24 09:27:00;;;;;;;14.05;12.00;;;11.20;81.10;;;;;;5107186;28;20532;-77
2020/12/24 09:29:35;;;;;;;13.85;11.85;;;11.30;80.80;;;;;;5107177;28;20183;-77
2020/12/24 09:32:04;;;;;;;14.52;12.98;;;11.40;81.00;;;;;;5108269;28;20177;-77
2020/12/24 09:34:33;;;;;;;15.00;12.25;;;11.40;80.40;;;;;;5106784;28;20195;-78
2020/12/24 09:36:58;;;;;;;13.82;12.32;;;11.50;80.00;;;;;;5108150;28;20227;-77
2020/12/24 09:39:24;;;;;;;16.67;15.07;;;11.50;79.90;;;;;;5108217;28;20225;-77
2020/12/24 09:41:58;;;;;;;14.30;10.60;;;11.60;80.50;;;;;;5108128;28;20186;-77
2020/12/24 09:44:30;;;;;;;14.55;11.30;;;11.60;79.90;;;;;;5107386;28;20608;-77
2020/12/24 09:46:55;;;;;;;13.85;11.30;;;11.60;80.20;;;;;;5107613;28;20187;-78
2020/12/24 09:49:24;;;;;;;13.70;12.40;;;11.70;79.90;;;;;;5106674;28;20179;-78
2020/12/24 09:51:49;;;;;;;14.35;11.60;;;11.80;79.30;;;;;;5107496;28;20223;-78
2020/12/24 09:54:18;;;;;;;12.30;10.20;;;11.90;78.80;;;;;;5107776;28;20168;-77
2020/12/24 09:56:46;;;;;;;11.40;10.27;;;11.90;79.40;;;;;;5107768;28;20204;-77
2020/12/24 09:59:12;;;;;;;13.20;11.50;;;11.90;78.80;;;;;;5106521;28;20176;-77
2020/12/24 10:01:37;;;;;;;14.70;12.77;;;11.90;79.10;;;;;;5108503;28;20194;-77
2020/12/24 10:04:06;;;;;;;15.93;14.37;;;12.10;78.40;;;;;;5107534;28;20647;-78
2020/12/24 10:06:31;;;;;;;13.30;11.98;;;12.20;78.00;;;;;;5105735;28;20560;-77
2020/12/24 10:09:00;;;;;;;22.87;20.87;;;12.30;77.60;;;;;;5104587;28;20187;-77
2020/12/24 10:11:26;;;;;;;13.15;11.02;;;12.40;77.20;;;;;;5104565;28;20188;-77
2020/12/24 10:13:51;;;;;;;15.77;14.37;;;12.50;77.30;;;;;;5105384;28;20194;-78
2020/12/24 10:16:27;;;;;;;12.10;11.00;;;12.70;76.00;;;;;;5107494;28;20544;-78
2020/12/24 10:18:53;;;;;;;10.97;9.87;;;12.70;75.70;;;;;;5109797;28;20151;-78
2020/12/24 10:21:18;;;;;;;10.90;10.00;;;12.90;75.40;;;;;;5110278;28;20418;-77
2020/12/24 10:23:44;;;;;;;9.90;8.90;;;12.90;75.00;;;;;;5111603;28;20176;-77
2020/12/24 10:26:15;;;;;;;11.70;10.50;;;13.00;74.60;;;;;;5111764;28;20249;-76
2020/12/24 10:28:41;;;;;;;14.33;12.93;;;13.20;74.00;;;;;;5111810;28;20164;-77
2020/12/24 10:31:09;;;;;;;16.43;13.20;;;13.30;73.60;;;;;;5110311;28;20432;-78
2020/12/24 10:33:34;;;;;;;11.23;10.07;;;13.40;73.90;;;;;;5110709;28;20176;-77
2020/12/24 10:36:00;;;;;;;10.53;9.37;;;13.40;73.00;;;;;;5111008;28;20504;-77
2020/12/24 10:38:27;;;;;;;13.37;12.13;;;13.50;72.70;;;;;;5109985;28;20176;-76
2020/12/24 10:40:58;;;;;;;10.20;9.20;;;13.70;72.00;;;;;;5110740;28;20172;-78
2020/12/24 10:43:28;;;;;;;10.87;9.77;;;13.70;72.40;;;;;;5111635;28;20381;-77
2020/12/24 10:45:59;;;;;;;12.47;11.37;;;13.70;72.10;;;;;;5111208;28;20773;-77
2020/12/24 10:48:34;;;;;;;12.33;11.13;;;13.70;71.80;;;;;;5110167;28;20818;-77
2020/12/24 10:51:00;;;;;;;9.43;8.53;;;13.80;72.50;;;;;;5111746;28;20433;-77
2020/12/24 10:53:25;;;;;;;9.33;8.40;;;13.80;71.80;;;;;;5110814;28;20412;-78
2020/12/24 10:55:54;;;;;;;13.33;12.13;;;13.80;71.50;;;;;;5111298;27;20207;-77
2020/12/24 10:58:22;;;;;;;8.83;7.20;;;13.90;71.10;;;;;;5111078;28;20178;-77
2020/12/24 11:00:50;;;;;;;8.03;7.13;;;13.90;70.90;;;;;;5110614;28;20867;-77
2020/12/24 11:03:27;;;;;;;9.97;8.70;;;14.00;70.40;;;;;;5111038;28;20400;-78
2020/12/24 11:05:53;;;;;;;11.47;10.43;;;14.00;70.80;;;;;;5110213;28;20418;-77
2020/12/24 11:08:18;;;;;;;10.20;8.30;;;14.10;70.00;;;;;;5109536;28;20415;-78
2020/12/24 11:10:44;;;;;;;12.27;10.97;;;14.10;70.20;;;;;;5109440;28;20620;-77
2020/12/24 11:13:12;;;;;;;9.80;8.20;;;14.10;70.30;;;;;;5110915;28;20515;-77
2020/12/24 11:15:43;;;;;;;24.17;22.10;;;14.10;70.50;;;;;;5110822;28;20180;-77
2020/12/24 11:18:09;;;;;;;9.10;8.30;;;14.10;70.50;;;;;;5109466;28;20825;-77
2020/12/24 11:20:34;;;;;;;10.63;9.50;;;14.10;70.90;;;;;;5109073;28;20419;-77
2020/12/24 11:23:00;;;;;;;13.90;12.40;;;14.10;70.90;;;;;;5109295;28;20183;-77
2020/12/24 11:25:25;;;;;;;25.90;23.20;;;14.10;71.30;;;;;;5108293;28;20699;-77
2020/12/24 11:27:51;;;;;;;23.07;20.60;;;14.10;71.30;;;;;;5109340;28;20182;-77
2020/12/24 11:30:17;;;;;;;14.50;12.00;;;14.10;71.50;;;;;;5110072;28;20187;-77
2020/12/24 11:32:54;;;;;;;16.93;15.23;;;14.20;71.40;;;;;;5110365;28;20171;-77
2020/12/24 11:35:20;;;;;;;15.63;14.23;;;14.10;71.30;;;;;;5110846;28;20176;-77
2020/12/24 11:37:45;;;;;;;10.03;8.93;;;14.20;71.60;;;;;;5108064;28;21262;-77
2020/12/24 11:40:14;;;;;;;18.90;17.30;;;14.30;71.20;;;;;;5110581;28;20932;-77
2020/12/24 11:42:39;;;;;;;11.93;8.90;;;14.30;71.50;;;;;;5108837;28;20540;-77
2020/12/24 11:45:08;;;;;;;8.63;7.80;;;14.40;71.10;;;;;;5110077;28;21236;-77
2020/12/24 11:47:35;;;;;;;8.40;7.60;;;14.50;70.70;;;;;;5110583;28;20222;-77
2020/12/24 11:50:01;;;;;;;9.23;8.30;;;14.50;70.40;;;;;;5110292;28;20475;-77
2020/12/24 11:52:29;;;;;;;8.90;8.10;;;14.50;70.30;;;;;;5110254;28;20503;-77
2020/12/24 11:54:58;;;;;;;10.13;8.70;;;14.60;70.00;;;;;;5109266;28;20481;-77
2020/12/24 11:57:25;;;;;;;7.83;7.13;;;14.60;70.10;;;;;;5109998;28;20439;-77
2020/12/24 11:59:51;;;;;;;8.97;8.10;;;14.60;70.10;;;;;;5110390;28;20427;-77
2020/12/24 12:02:19;;;;;;;8.93;8.10;;;14.60;70.00;;;;;;5108199;28;20404;-77
2020/12/24 12:04:47;;;;;;;9.33;8.37;;;14.60;70.10;;;;;;5109793;28;20631;-77
2020/12/24 12:07:19;;;;;;;9.67;8.67;;;14.50;70.40;;;;;;5109522;28;20400;-78
2020/12/24 12:09:51;;;;;;;9.00;8.10;;;14.50;70.60;;;;;;5108970;28;20420;-78
2020/12/24 12:12:17;;;;;;;11.70;7.77;;;14.50;70.40;;;;;;5109384;28;20385;-78
2020/12/24 12:14:52;;;;;;;10.10;8.90;;;14.40;71.00;;;;;;5109816;28;20408;-78
2020/12/24 12:17:22;;;;;;;11.30;10.30;;;14.30;71.60;;;;;;5110009;28;20489;-76
2020/12/24 12:19:47;;;;;;;10.93;9.87;;;14.30;71.80;;;;;;5109503;28;20412;-76
2020/12/24 12:22:16;;;;;;;10.03;9.03;;;14.20;71.90;;;;;;5109637;28;20407;-76
2020/12/24 12:24:48;;;;;;;10.17;9.17;;;14.20;72.00;;;;;;5108973;28;20186;-76
2020/12/24 12:27:14;;;;;;;10.33;9.33;;;14.20;72.00;;;;;;5106801;28;20412;-76
2020/12/24 12:29:42;;;;;;;9.87;8.97;;;14.30;71.90;;;;;;5109187;28;20489;-76
2020/12/24 12:32:11;;;;;;;9.33;8.43;;;14.30;72.40;;;;;;5108713;28;20172;-76
2020/12/24 12:34:36;;;;;;;10.33;9.23;;;14.30;71.90;;;;;;5107746;28;20907;-77
2020/12/24 12:37:04;;;;;;;10.07;8.97;;;14.30;72.00;;;;;;5109004;28;20492;-76
2020/12/24 12:39:36;;;;;;;14.23;11.43;;;14.30;72.20;;;;;;5109285;28;20183;-76
2020/12/24 12:42:02;;;;;;;12.67;9.67;;;14.30;72.50;;;;;;5106689;28;20420;-78
2020/12/24 12:44:30;;;;;;;15.13;13.63;;;14.30;72.50;;;;;;5108564;28;20474;-78
2020/12/24 12:46:57;;;;;;;9.87;8.83;;;14.30;72.70;;;;;;5108657;28;20528;-78
2020/12/24 12:49:25;;;;;;;9.80;8.67;;;14.30;72.50;;;;;;5109090;28;20773;-76
2020/12/24 12:51:56;;;;;;;11.20;8.43;;;14.30;72.40;;;;;;5108656;28;20946;-79
2020/12/24 12:54:25;;;;;;;12.37;10.83;;;14.30;72.30;;;;;;5108858;28;20872;-76